Terminal Aerodrome Forecast
Issued by NWS El Paso, TX

Home | Current Version | Previous Version | Text Only | Print | Product List | Glossary On
Versions: 1 2 3 4 5 6 7 8 9 10 11 12 13 14 15
000
FTUS44 KEPZ 222300 RRA
TAFELP
TAF
KELP 222344Z 2300/2324 05020G30KT 6SM -TSRA BLDU SCT050 BKN080CB
      OVC150
      TEMPO 2300/2304 VRB25G45KT 2SM TSRA BLDU BKN050CB OVC110
     FM230600 10010KT P6SM SCT080 BKN150
     FM231200 09012KT P6SM SCT150 SCT250
     FM231800 11010KT P6SM FEW080 SCT150=

USA.gov is the U.S. government's official web portal to all federal, state and local government web resources and services.